createdAt,value
2023-04-01T00:01:05.763Z,12.09
2023-04-01T00:03:33.763Z,11.99
2023-04-01T00:06:01.630Z,12.00
2023-04-01T00:08:28.725Z,11.94
2023-04-01T00:10:57.892Z,11.88
2023-04-01T00:13:25.504Z,11.76
2023-04-01T00:15:52.245Z,11.72
2023-04-01T00:18:19.441Z,11.56
2023-04-01T00:20:50.827Z,11.29
2023-04-01T00:23:21.509Z,11.39
2023-04-01T00:25:52.939Z,11.66
2023-04-01T00:28:21.496Z,11.86
2023-04-01T00:30:57.154Z,11.75
2023-04-01T00:33:26.883Z,11.62
2023-04-01T00:35:53.461Z,11.65
2023-04-01T00:38:20.075Z,11.69
2023-04-01T00:40:47.470Z,11.90
2023-04-01T00:43:19.092Z,11.94
2023-04-01T00:45:49.648Z,11.45
2023-04-01T00:48:18.659Z,11.60
2023-04-01T00:50:50.730Z,11.69
2023-04-01T00:53:20.315Z,11.75
2023-04-01T00:55:54.507Z,11.77
2023-04-01T00:58:24.674Z,11.68
2023-04-01T01:00:53.234Z,11.84
2023-04-01T01:03:21.872Z,11.94
2023-04-01T01:06:03.804Z,11.70
2023-04-01T01:08:45.815Z,11.93
2023-04-01T01:11:23.562Z,11.81
2023-04-01T01:13:59.855Z,11.74
2023-04-01T01:16:31.613Z,11.85
2023-04-01T01:19:09.122Z,11.90
2023-04-01T01:21:57.231Z,11.50
2023-04-01T01:24:54.751Z,11.76
2023-04-01T01:27:22.240Z,11.86
2023-04-01T01:30:15.103Z,11.83
2023-04-01T01:33:02.408Z,11.67
2023-04-01T01:35:40.935Z,11.51
2023-04-01T01:38:12.224Z,11.62
2023-04-01T01:40:42.651Z,11.60
2023-04-01T01:43:17.355Z,11.61
2023-04-01T01:45:49.176Z,11.44
2023-04-01T01:48:18.418Z,11.62
2023-04-01T01:50:49.678Z,11.64
2023-04-01T01:53:16.415Z,11.84
2023-04-01T01:55:45.438Z,11.54
2023-04-01T01:58:17.221Z,11.72
2023-04-01T02:00:51.261Z,11.65
2023-04-01T02:03:20.026Z,11.84
2023-04-01T02:05:50.772Z,11.66
2023-04-01T02:08:21.609Z,11.51
2023-04-01T02:10:56.962Z,11.47
2023-04-01T02:13:30.769Z,11.32
2023-04-01T02:16:02.944Z,11.53
2023-04-01T02:18:30.979Z,11.34
2023-04-01T02:21:00.859Z,11.36
2023-04-01T02:23:29.608Z,11.72
2023-04-01T02:25:56.634Z,11.84
2023-04-01T02:28:25.178Z,11.66
2023-04-01T02:30:52.768Z,11.73
2023-04-01T02:33:20.784Z,11.75
2023-04-01T02:35:50.357Z,11.83
2023-04-01T02:38:18.691Z,11.65
2023-04-01T02:40:48.412Z,11.41
2023-04-01T02:43:15.220Z,11.73
2023-04-01T02:45:41.795Z,11.44
2023-04-01T02:48:08.532Z,11.25
2023-04-01T02:50:35.121Z,11.37
2023-04-01T02:53:02.649Z,11.67
2023-04-01T02:55:30.922Z,11.42
2023-04-01T02:57:57.737Z,11.57
2023-04-01T03:00:24.819Z,11.39
2023-04-01T03:02:51.516Z,11.58
2023-04-01T03:05:18.069Z,11.66
2023-04-01T03:07:44.743Z,11.60
2023-04-01T03:10:11.631Z,11.58
2023-04-01T03:12:39.685Z,11.56
2023-04-01T03:15:11.268Z,11.66
2023-04-01T03:17:38.544Z,11.75
2023-04-01T03:20:06.122Z,11.76
2023-04-01T03:22:32.924Z,11.64
2023-04-01T03:24:59.425Z,11.36
2023-04-01T03:27:26.039Z,11.56
2023-04-01T03:29:53.984Z,11.67
2023-04-01T03:32:20.831Z,11.58
2023-04-01T03:34:47.786Z,11.73
2023-04-01T03:37:14.439Z,11.69
2023-04-01T03:39:42.504Z,11.78
2023-04-01T03:42:10.053Z,11.65
2023-04-01T03:44:36.632Z,11.37
2023-04-01T03:47:04.697Z,11.59
2023-04-01T03:49:31.239Z,11.62
2023-04-01T03:51:57.761Z,11.66
2023-04-01T03:54:24.432Z,11.97
2023-04-01T03:56:51.039Z,11.69
2023-04-01T03:59:20.522Z,11.72
2023-04-01T04:01:47.573Z,11.84
2023-04-01T04:04:15.679Z,11.85
2023-04-01T04:06:42.688Z,11.65
2023-04-01T04:09:09.279Z,11.80
2023-04-01T04:11:35.885Z,11.94
2023-04-01T04:14:02.652Z,11.86
2023-04-01T04:16:29.426Z,11.87
2023-04-01T04:18:56.161Z,11.81
2023-04-01T04:21:24.320Z,12.01
2023-04-01T04:23:50.884Z,12.00
2023-04-01T04:26:17.494Z,11.56
2023-04-01T04:28:44.096Z,11.75
2023-04-01T04:31:10.803Z,12.07
2023-04-01T04:33:37.705Z,11.87
2023-04-01T04:36:05.440Z,11.80
2023-04-01T04:38:33.503Z,11.68
2023-04-01T04:41:00.156Z,11.63
2023-04-01T04:43:26.823Z,11.71
2023-04-01T04:45:53.486Z,11.62
2023-04-01T04:48:20.297Z,11.85
2023-04-01T04:50:48.005Z,11.71
2023-04-01T04:53:15.570Z,11.64
2023-04-01T04:55:45.688Z,11.56
2023-04-01T04:58:12.496Z,11.50
2023-04-01T05:00:39.665Z,11.79
2023-04-01T05:03:06.621Z,11.73
2023-04-01T05:05:33.722Z,11.85
2023-04-01T05:08:00.837Z,11.88
2023-04-01T05:10:27.403Z,12.15
2023-04-01T05:12:55.512Z,11.91
2023-04-01T05:15:22.282Z,11.94
2023-04-01T05:17:48.879Z,12.11
2023-04-01T05:20:16.392Z,12.14
2023-04-01T05:22:43.186Z,11.83
2023-04-01T05:25:10.446Z,11.75
2023-04-01T05:27:37.101Z,11.73
2023-04-01T05:30:06.858Z,11.88
2023-04-01T05:32:33.637Z,11.84
2023-04-01T05:35:00.354Z,11.95
2023-04-01T05:37:26.932Z,12.00
2023-04-01T05:39:53.644Z,11.96
2023-04-01T05:42:20.220Z,12.16
2023-04-01T05:44:46.778Z,11.95
2023-04-01T05:47:14.745Z,11.89
2023-04-01T05:49:41.450Z,12.04
2023-04-01T05:52:08.745Z,11.86
2023-04-01T05:54:35.756Z,11.93
2023-04-01T05:57:02.668Z,12.06
2023-04-01T05:59:29.404Z,12.07
2023-04-01T06:01:57.353Z,12.03
2023-04-01T06:04:29.495Z,11.96
2023-04-01T06:06:56.132Z,11.94
2023-04-01T06:09:27.624Z,11.80
2023-04-01T06:12:13.889Z,11.66
2023-04-01T06:14:52.260Z,11.86
2023-04-01T06:17:31.466Z,12.17
2023-04-01T06:20:07.564Z,12.25
2023-04-01T06:22:50.507Z,12.13
2023-04-01T06:25:52.744Z,12.32
2023-04-01T06:28:50.848Z,12.26
2023-04-01T06:31:33.785Z,12.11
2023-04-01T06:34:15.530Z,12.14
2023-04-01T06:37:02.003Z,12.11
2023-04-01T06:39:41.299Z,12.25
2023-04-01T06:42:23.544Z,12.22
2023-04-01T06:45:04.356Z,12.37
2023-04-01T06:47:45.671Z,12.06
2023-04-01T06:50:23.456Z,12.56
2023-04-01T06:52:59.836Z,12.20
2023-04-01T06:55:31.458Z,12.30
2023-04-01T06:58:00.777Z,12.30
2023-04-01T07:00:31.700Z,12.01
2023-04-01T07:03:07.520Z,12.24
2023-04-01T07:05:35.339Z,12.44
2023-04-01T07:08:06.893Z,12.29
2023-04-01T07:10:41.563Z,12.31
2023-04-01T07:13:17.017Z,12.66
2023-04-01T07:15:47.798Z,12.65
2023-04-01T07:18:19.092Z,12.82
2023-04-01T07:20:47.488Z,12.85
2023-04-01T07:23:21.949Z,12.72
2023-04-01T07:25:53.635Z,12.60
2023-04-01T07:28:20.212Z,12.90
2023-04-01T07:30:59.187Z,13.11
2023-04-01T07:33:34.286Z,12.79
2023-04-01T07:36:09.259Z,12.84
2023-04-01T07:38:50.134Z,12.88
2023-04-01T07:41:27.773Z,13.19
2023-04-01T07:44:03.456Z,12.88
2023-04-01T07:46:51.148Z,13.01
2023-04-01T07:49:26.633Z,13.09
2023-04-01T07:52:01.456Z,12.84
2023-04-01T07:54:34.924Z,13.02
2023-04-01T07:57:07.693Z,13.08
2023-04-01T07:59:43.837Z,13.06
2023-04-01T08:02:23.154Z,13.24
2023-04-01T08:04:59.683Z,13.19
2023-04-01T08:07:29.556Z,13.28
2023-04-01T08:10:05.774Z,13.29
2023-04-01T08:12:45.993Z,13.29
2023-04-01T08:15:21.332Z,13.10
2023-04-01T08:17:57.904Z,12.96
2023-04-01T08:20:33.328Z,12.97
2023-04-01T08:23:04.573Z,13.19
2023-04-01T08:25:35.264Z,13.39
2023-04-01T08:28:13.616Z,13.45
2023-04-01T08:30:44.714Z,13.53
2023-04-01T08:33:17.146Z,13.42
2023-04-01T08:35:51.072Z,13.58
2023-04-01T08:38:22.513Z,13.52
2023-04-01T08:41:30.922Z,13.78
2023-04-01T08:44:15.320Z,13.55
2023-04-01T08:47:04.025Z,13.55
2023-04-01T08:49:56.065Z,13.48
2023-04-01T08:52:36.584Z,13.68
2023-04-01T08:55:26.115Z,13.69
2023-04-01T08:58:20.369Z,13.76
2023-04-01T09:00:54.460Z,13.84
2023-04-01T09:03:44.009Z,13.71
2023-04-01T09:06:30.137Z,14.01
2023-04-01T09:09:26.799Z,13.93
2023-04-01T09:12:14.461Z,13.79
2023-04-01T09:15:00.119Z,13.83
2023-04-01T09:17:59.651Z,13.80
2023-04-01T09:20:51.908Z,13.66
2023-04-01T09:23:55.232Z,13.50
2023-04-01T09:26:36.059Z,13.34
2023-04-01T09:29:13.216Z,13.74
2023-04-01T09:32:09.143Z,13.73
2023-04-01T09:34:54.288Z,14.02
2023-04-01T09:37:22.622Z,13.73
2023-04-01T09:40:11.899Z,13.94
2023-04-01T09:43:03.432Z,14.40
2023-04-01T09:45:47.241Z,14.38
2023-04-01T09:48:25.867Z,14.49
2023-04-01T09:54:48.515Z,14.01
2023-04-01T09:57:50.251Z,13.32
2023-04-01T10:04:26.029Z,14.58
2023-04-01T10:07:30.205Z,14.74
2023-04-01T10:10:26.185Z,14.84
2023-04-01T10:13:30.208Z,14.56
2023-04-01T10:19:24.330Z,14.83
2023-04-01T10:22:36.470Z,14.71
2023-04-01T10:25:35.576Z,14.87
2023-04-01T10:28:38.027Z,14.56
2023-04-01T10:31:26.855Z,14.82
2023-04-01T10:34:20.326Z,14.55
2023-04-01T10:36:54.313Z,14.83
2023-04-01T10:40:08.289Z,14.85
2023-04-01T10:43:07.009Z,14.77
2023-04-01T10:46:12.831Z,14.53
2023-04-01T10:49:27.999Z,14.55
2023-04-01T10:52:32.665Z,14.30
2023-04-01T10:55:20.336Z,14.28
2023-04-01T10:58:21.272Z,14.64
2023-04-01T11:01:28.994Z,14.54
2023-04-01T11:04:32.866Z,14.56
2023-04-01T11:07:33.991Z,14.41
2023-04-01T11:10:35.718Z,14.33
2023-04-01T11:13:37.125Z,14.13
2023-04-01T11:16:39.397Z,14.11
2023-04-01T11:19:33.494Z,14.15
2023-04-01T11:22:25.623Z,14.23
2023-04-01T11:25:22.706Z,14.38
2023-04-01T11:28:06.454Z,14.39
2023-04-01T11:30:50.222Z,14.74
2023-04-01T11:33:24.232Z,14.98
2023-04-01T11:36:03.367Z,15.05
2023-04-01T11:39:12.245Z,14.63
2023-04-01T11:41:47.117Z,14.81
2023-04-01T11:44:20.201Z,14.85
2023-04-01T11:47:12.013Z,14.56
2023-04-01T11:49:50.747Z,14.84
2023-04-01T11:52:27.709Z,14.73
2023-04-01T11:55:16.933Z,14.91
2023-04-01T11:58:17.661Z,14.91
2023-04-01T12:01:07.291Z,14.87
2023-04-01T12:04:06.603Z,14.92
2023-04-01T12:07:05.443Z,14.52
2023-04-01T12:09:55.136Z,14.63
2023-04-01T12:12:31.771Z,14.67
2023-04-01T12:15:15.783Z,14.34
2023-04-01T12:17:51.573Z,14.26
2023-04-01T12:20:35.560Z,14.47
2023-04-01T12:28:16.941Z,14.50
2023-04-01T12:45:03.108Z,14.90
2023-04-01T12:47:54.599Z,14.92
2023-04-01T12:50:42.956Z,14.63
2023-04-01T12:53:47.534Z,14.22
2023-04-01T12:56:25.271Z,14.71
2023-04-01T12:59:22.651Z,14.68
2023-04-01T13:02:02.403Z,14.64
2023-04-01T13:04:45.813Z,14.77
2023-04-01T13:07:59.770Z,14.68
2023-04-01T13:10:40.882Z,14.56
2023-04-01T13:13:29.725Z,13.90
2023-04-01T13:16:06.574Z,14.27
2023-04-01T13:18:47.348Z,14.53
2023-04-01T13:21:39.718Z,14.65
2023-04-01T13:24:37.690Z,14.47
2023-04-01T13:33:31.643Z,14.48
2023-04-01T13:36:09.134Z,14.66
2023-04-01T13:39:00.038Z,14.71
2023-04-01T13:41:39.931Z,14.73
2023-04-01T13:47:52.696Z,14.65
2023-04-01T13:50:43.299Z,14.12
2023-04-01T13:53:48.621Z,14.72
2023-04-01T13:56:29.744Z,14.53
2023-04-01T13:59:20.742Z,14.74
2023-04-01T14:01:54.635Z,14.69
2023-04-01T14:04:49.246Z,14.53
2023-04-01T14:07:42.443Z,14.48
2023-04-01T14:10:19.643Z,14.29
2023-04-01T14:12:52.532Z,14.60
2023-04-01T14:15:34.960Z,14.60
2023-04-01T14:18:17.285Z,14.58
2023-04-01T14:20:52.686Z,14.55
2023-04-01T14:23:52.067Z,14.49
2023-04-01T14:26:40.151Z,14.43
2023-04-01T14:29:19.711Z,14.37
2023-04-01T14:32:07.497Z,14.35
2023-04-01T14:34:57.866Z,14.57
2023-04-01T14:37:42.495Z,14.67
2023-04-01T14:40:27.677Z,14.59
2023-04-01T14:43:09.979Z,14.19
2023-04-01T14:45:52.022Z,14.33
2023-04-01T14:48:28.457Z,14.39
2023-04-01T14:50:58.773Z,14.41
2023-04-01T14:53:30.861Z,14.38
2023-04-01T14:55:59.717Z,14.47
2023-04-01T14:58:44.096Z,14.40
2023-04-01T15:01:33.415Z,14.20
2023-04-01T15:04:16.697Z,14.32
2023-04-01T15:07:06.422Z,14.22
2023-04-01T15:09:40.725Z,14.15
2023-04-01T15:12:19.534Z,14.27
2023-04-01T15:14:58.965Z,14.31
2023-04-01T15:17:44.298Z,14.34
2023-04-01T15:20:32.448Z,14.31
2023-04-01T15:23:11.097Z,14.15
2023-04-01T15:25:50.910Z,14.34
2023-04-01T15:28:29.229Z,13.99
2023-04-01T15:31:02.861Z,14.04
2023-04-01T15:33:49.429Z,14.10
2023-04-01T15:36:27.854Z,14.13
2023-04-01T15:39:02.408Z,14.04
2023-04-01T15:41:40.212Z,13.98
2023-04-01T15:44:39.169Z,14.05
2023-04-01T15:47:20.623Z,14.27
2023-04-01T15:49:56.707Z,14.49
2023-04-01T15:52:25.504Z,14.29
2023-04-01T15:55:18.519Z,13.97
2023-04-01T15:58:03.413Z,13.89
2023-04-01T16:00:31.364Z,14.03
2023-04-01T16:03:18.504Z,14.15
2023-04-01T16:06:00.286Z,13.78
2023-04-01T16:08:59.393Z,13.55
2023-04-01T16:11:38.728Z,13.73
2023-04-01T16:14:17.788Z,13.68
2023-04-01T16:17:00.509Z,13.53
2023-04-01T16:19:37.182Z,13.71
2023-04-01T16:22:09.501Z,13.67
2023-04-01T16:24:42.066Z,13.59
2023-04-01T16:27:14.095Z,13.61
2023-04-01T16:29:49.809Z,13.44
2023-04-01T16:32:30.153Z,13.68
2023-04-01T16:35:06.857Z,13.60
2023-04-01T16:37:40.082Z,13.72
2023-04-01T16:40:21.680Z,13.59
2023-04-01T16:42:52.507Z,13.62
2023-04-01T16:45:39.387Z,13.65
2023-04-01T16:48:12.809Z,13.67
2023-04-01T16:50:49.673Z,13.61
2023-04-01T16:53:20.587Z,13.61
2023-04-01T16:55:51.442Z,13.66
2023-04-01T16:58:24.032Z,13.47
2023-04-01T17:00:56.354Z,13.47
2023-04-01T17:03:28.416Z,13.54
2023-04-01T17:06:19.634Z,13.52
2023-04-01T17:09:00.296Z,13.52
2023-04-01T17:11:32.911Z,13.04
2023-04-01T17:14:08.638Z,13.27
2023-04-01T17:17:02.456Z,13.34
2023-04-01T17:19:57.723Z,13.34
2023-04-01T17:22:35.557Z,13.09
2023-04-01T17:25:29.361Z,13.31
2023-04-01T17:28:00.660Z,13.46
2023-04-01T17:30:36.785Z,13.39
2023-04-01T17:33:20.686Z,13.43
2023-04-01T17:35:57.564Z,13.51
2023-04-01T17:38:40.595Z,13.54
2023-04-01T17:41:12.367Z,13.46
2023-04-01T17:43:49.268Z,13.41
2023-04-01T17:46:31.706Z,13.17
2023-04-01T17:49:11.712Z,13.19
2023-04-01T17:51:44.409Z,13.34
2023-04-01T17:54:25.495Z,13.36
2023-04-01T17:57:09.502Z,13.48
2023-04-01T17:59:38.400Z,13.36
2023-04-01T18:02:17.785Z,13.32
2023-04-01T18:05:03.358Z,13.32
2023-04-01T18:07:58.909Z,13.38
2023-04-01T18:10:32.325Z,13.20
2023-04-01T18:13:30.344Z,13.29
2023-04-01T18:16:12.409Z,13.40
2023-04-01T18:18:49.013Z,13.40
2023-04-01T18:21:24.951Z,13.34
2023-04-01T18:24:02.125Z,13.22
2023-04-01T18:26:32.074Z,13.18
2023-04-01T18:29:05.104Z,13.03
2023-04-01T18:31:38.413Z,12.98
2023-04-01T18:34:13.898Z,13.13
2023-04-01T18:36:49.413Z,13.32
2023-04-01T18:39:19.722Z,13.24
2023-04-01T18:42:08.314Z,13.19
2023-04-01T18:44:46.740Z,13.20
2023-04-01T18:47:25.897Z,13.17
2023-04-01T18:49:56.882Z,13.26
2023-04-01T18:52:29.445Z,13.13
2023-04-01T18:55:29.377Z,12.97
2023-04-01T18:58:08.144Z,13.18
2023-04-01T19:00:39.684Z,13.18
2023-04-01T19:03:16.930Z,13.17
2023-04-01T19:05:46.586Z,13.25
2023-04-01T19:08:20.406Z,13.23
2023-04-01T19:10:54.108Z,13.13
2023-04-01T19:13:28.380Z,12.91
2023-04-01T19:16:03.764Z,13.04
2023-04-01T19:18:50.983Z,13.07
2023-04-01T19:21:22.326Z,13.07
2023-04-01T19:24:14.705Z,13.16
2023-04-01T19:26:46.698Z,13.02
2023-04-01T19:29:25.864Z,12.76
2023-04-01T19:32:02.736Z,13.02
2023-04-01T19:34:41.574Z,13.08
2023-04-01T19:37:21.206Z,13.14
2023-04-01T19:40:01.291Z,13.08
2023-04-01T19:42:36.532Z,12.91
2023-04-01T19:45:18.043Z,12.97
2023-04-01T19:47:57.552Z,12.94
2023-04-01T19:50:31.984Z,13.05
2023-04-01T19:53:05.472Z,13.13
2023-04-01T19:55:43.408Z,13.21
2023-04-01T19:58:19.119Z,13.10
2023-04-01T20:00:50.142Z,13.21
2023-04-01T20:03:26.340Z,13.22
2023-04-01T20:06:02.741Z,13.07
2023-04-01T20:08:37.638Z,13.10
2023-04-01T20:11:27.710Z,13.27
2023-04-01T20:14:06.652Z,13.21
2023-04-01T20:16:54.082Z,13.11
2023-04-01T20:19:38.795Z,13.17
2023-04-01T20:22:17.027Z,13.20
2023-04-01T20:24:47.487Z,13.31
2023-04-01T20:27:22.511Z,13.28
2023-04-01T20:30:05.748Z,13.11
2023-04-01T20:32:58.093Z,13.31
2023-04-01T20:35:36.596Z,13.27
2023-04-01T20:38:24.373Z,13.34
2023-04-01T20:40:53.874Z,13.22
2023-04-01T20:43:43.940Z,13.30
2023-04-01T20:46:20.018Z,13.40
2023-04-01T20:49:07.194Z,13.29
2023-04-01T20:51:38.574Z,13.33
2023-04-01T20:54:19.613Z,13.24
2023-04-01T20:57:01.555Z,12.62
2023-04-01T20:59:57.355Z,12.81
2023-04-01T21:02:42.536Z,11.83
2023-04-01T21:05:37.328Z,11.70
2023-04-01T21:08:12.351Z,11.04
2023-04-01T21:10:43.909Z,10.85
2023-04-01T21:13:28.561Z,10.54
2023-04-01T21:16:12.102Z,10.58
2023-04-01T21:19:01.265Z,10.53
2023-04-01T21:21:45.302Z,10.62
2023-04-01T21:24:45.903Z,10.33
2023-04-01T21:27:21.725Z,10.58
2023-04-01T21:29:58.442Z,10.18
2023-04-01T21:32:50.266Z,10.37
2023-04-01T21:35:32.134Z,10.09
2023-04-01T21:38:08.648Z,9.89
2023-04-01T21:40:57.419Z,9.93
2023-04-01T21:43:45.644Z,10.03
2023-04-01T21:46:47.541Z,9.72
2023-04-01T21:49:37.036Z,9.84
2023-04-01T21:52:39.195Z,9.69
2023-04-01T21:55:43.466Z,9.40
2023-04-01T21:58:42.627Z,9.75
2023-04-01T22:01:25.428Z,9.55
2023-04-01T22:04:19.853Z,9.23
2023-04-01T22:06:52.790Z,9.74
2023-04-01T22:09:24.679Z,9.53
2023-04-01T22:12:00.585Z,9.43
2023-04-01T22:14:34.048Z,9.37
2023-04-01T22:17:06.441Z,9.41
2023-04-01T22:19:42.629Z,9.16
2023-04-01T22:22:18.019Z,9.12
2023-04-01T22:24:56.274Z,9.26
2023-04-01T22:27:31.758Z,9.04
2023-04-01T22:30:14.793Z,8.82
2023-04-01T22:32:44.968Z,9.00
2023-04-01T22:35:30.414Z,8.90
2023-04-01T22:38:10.637Z,8.68
2023-04-01T22:40:45.654Z,8.58
2023-04-01T22:43:17.048Z,8.75
2023-04-01T22:46:17.107Z,8.74
2023-04-01T22:48:45.978Z,8.83
2023-04-01T22:51:18.740Z,8.81
2023-04-01T22:53:58.429Z,8.90
2023-04-01T22:56:29.979Z,9.15
2023-04-01T22:59:05.554Z,9.02
2023-04-01T23:01:39.856Z,8.81
2023-04-01T23:04:06.599Z,9.18
2023-04-01T23:06:39.252Z,8.71
2023-04-01T23:09:14.301Z,8.46
2023-04-01T23:11:47.396Z,8.61
2023-04-01T23:14:44.562Z,8.70
2023-04-01T23:17:24.371Z,8.72
2023-04-01T23:19:56.619Z,8.80
2023-04-01T23:22:31.454Z,8.38
2023-04-01T23:25:13.472Z,8.95
2023-04-01T23:27:46.416Z,9.20
2023-04-01T23:30:50.455Z,8.52
2023-04-01T23:33:24.198Z,8.42
2023-04-01T23:35:53.333Z,8.60
2023-04-01T23:38:22.291Z,8.55
2023-04-01T23:40:53.150Z,8.83
2023-04-01T23:43:25.911Z,8.27
2023-04-01T23:45:53.448Z,8.48
2023-04-01T23:48:23.526Z,8.46
2023-04-01T23:50:50.161Z,8.60
2023-04-01T23:53:19.838Z,8.11
2023-04-01T23:55:47.559Z,8.36
2023-04-01T23:58:22.162Z,8.45
